sensor_id;sensor_type;location;lat;lon;timestamp;pressure;altitude;pressure_sealevel;temperature;humidity
57668;BME280;43499;52.366;12.912;2022-07-11T00:00:50;101690.66;;;12.68;69.06
57668;BME280;43499;52.366;12.912;2022-07-11T00:01:51;101699.13;;;12.74;68.49
57668;BME280;43499;52.366;12.912;2022-07-11T00:02:52;101681.84;;;12.68;68.50
57668;BME280;43499;52.366;12.912;2022-07-11T00:03:54;101701.13;;;12.87;68.47
57668;BME280;43499;52.366;12.912;2022-07-11T00:04:55;101700.69;;;12.62;69.15
57668;BME280;43499;52.366;12.912;2022-07-11T00:05:57;101688.28;;;12.50;69.52
57668;BME280;43499;52.366;12.912;2022-07-11T00:07:01;101702.66;;;12.54;69.72
57668;BME280;43499;52.366;12.912;2022-07-11T00:08:03;101694.22;;;12.58;69.46
57668;BME280;43499;52.366;12.912;2022-07-11T00:09:07;101696.72;;;12.67;68.96
57668;BME280;43499;52.366;12.912;2022-07-11T00:10:09;101699.50;;;12.58;69.08
57668;BME280;43499;52.366;12.912;2022-07-11T00:11:10;101697.69;;;12.68;69.20
57668;BME280;43499;52.366;12.912;2022-07-11T00:12:13;101697.53;;;12.66;68.97
57668;BME280;43499;52.366;12.912;2022-07-11T00:13:14;101704.13;;;12.61;68.76
57668;BME280;43499;52.366;12.912;2022-07-11T00:14:16;101707.25;;;12.57;69.54
57668;BME280;43499;52.366;12.912;2022-07-11T00:15:17;101698.34;;;12.65;69.11
57668;BME280;43499;52.366;12.912;2022-07-11T00:16:19;101707.94;;;12.64;69.14
57668;BME280;43499;52.366;12.912;2022-07-11T00:17:21;101706.84;;;12.52;69.45
57668;BME280;43499;52.366;12.912;2022-07-11T00:18:23;101705.13;;;12.42;70.02
57668;BME280;43499;52.366;12.912;2022-07-11T00:19:26;101700.25;;;12.47;69.91
57668;BME280;43499;52.366;12.912;2022-07-11T00:20:27;101700.88;;;12.44;69.78
57668;BME280;43499;52.366;12.912;2022-07-11T00:21:28;101700.75;;;12.43;69.93
57668;BME280;43499;52.366;12.912;2022-07-11T00:22:32;101709.59;;;12.43;70.09
57668;BME280;43499;52.366;12.912;2022-07-11T00:23:33;101697.63;;;12.47;70.18
57668;BME280;43499;52.366;12.912;2022-07-11T00:24:35;101699.28;;;12.36;69.67
57668;BME280;43499;52.366;12.912;2022-07-11T00:25:37;101693.69;;;12.23;70.59
57668;BME280;43499;52.366;12.912;2022-07-11T00:26:38;101702.69;;;12.25;70.50
57668;BME280;43499;52.366;12.912;2022-07-11T00:27:40;101698.13;;;12.43;69.91
57668;BME280;43499;52.366;12.912;2022-07-11T00:28:41;101691.00;;;12.42;70.29
57668;BME280;43499;52.366;12.912;2022-07-11T00:29:43;101692.09;;;12.54;69.70
57668;BME280;43499;52.366;12.912;2022-07-11T00:30:44;101697.75;;;12.48;69.52
57668;BME280;43499;52.366;12.912;2022-07-11T00:31:46;101697.72;;;12.38;69.99
57668;BME280;43499;52.366;12.912;2022-07-11T00:32:47;101699.16;;;12.34;70.35
57668;BME280;43499;52.366;12.912;2022-07-11T00:33:49;101694.91;;;12.26;70.57
57668;BME280;43499;52.366;12.912;2022-07-11T00:34:50;101695.97;;;12.28;70.00
57668;BME280;43499;52.366;12.912;2022-07-11T00:35:52;101693.78;;;12.14;70.68
57668;BME280;43499;52.366;12.912;2022-07-11T00:36:53;101701.69;;;12.14;70.94
57668;BME280;43499;52.366;12.912;2022-07-11T00:37:56;101698.69;;;12.19;70.85
57668;BME280;43499;52.366;12.912;2022-07-11T00:38:57;101692.75;;;12.12;71.16
57668;BME280;43499;52.366;12.912;2022-07-11T00:39:59;101705.31;;;12.25;71.08
57668;BME280;43499;52.366;12.912;2022-07-11T00:41:00;101695.38;;;12.41;70.55
57668;BME280;43499;52.366;12.912;2022-07-11T00:42:02;101689.41;;;12.33;70.12
57668;BME280;43499;52.366;12.912;2022-07-11T00:43:03;101697.72;;;12.38;70.56
57668;BME280;43499;52.366;12.912;2022-07-11T00:44:05;101698.50;;;12.37;70.37
57668;BME280;43499;52.366;12.912;2022-07-11T00:45:07;101694.16;;;12.38;70.44
57668;BME280;43499;52.366;12.912;2022-07-11T00:46:09;101691.88;;;12.32;70.46
57668;BME280;43499;52.366;12.912;2022-07-11T00:47:10;101688.63;;;12.05;70.92
57668;BME280;43499;52.366;12.912;2022-07-11T00:48:12;101697.97;;;12.01;71.38
57668;BME280;43499;52.366;12.912;2022-07-11T00:49:13;101695.88;;;12.08;71.20
57668;BME280;43499;52.366;12.912;2022-07-11T00:50:16;101696.13;;;12.00;71.52
57668;BME280;43499;52.366;12.912;2022-07-11T00:51:17;101703.25;;;12.01;72.11
57668;BME280;43499;52.366;12.912;2022-07-11T00:52:22;101701.53;;;12.02;71.95
57668;BME280;43499;52.366;12.912;2022-07-11T00:53:26;101698.88;;;12.02;71.89
57668;BME280;43499;52.366;12.912;2022-07-11T00:54:27;101699.00;;;12.03;72.08
57668;BME280;43499;52.366;12.912;2022-07-11T00:55:29;101694.97;;;12.07;71.90
57668;BME280;43499;52.366;12.912;2022-07-11T00:56:30;101702.34;;;12.11;71.69
57668;BME280;43499;52.366;12.912;2022-07-11T00:57:33;101694.44;;;12.11;71.19
57668;BME280;43499;52.366;12.912;2022-07-11T00:58:35;101692.78;;;12.22;70.88
57668;BME280;43499;52.366;12.912;2022-07-11T00:59:37;101677.84;;;12.12;70.68
57668;BME280;43499;52.366;12.912;2022-07-11T01:00:38;101696.41;;;12.14;70.85
57668;BME280;43499;52.366;12.912;2022-07-11T01:01:40;101692.00;;;12.23;70.75
57668;BME280;43499;52.366;12.912;2022-07-11T01:02:41;101693.97;;;12.26;70.93
57668;BME280;43499;52.366;12.912;2022-07-11T01:03:43;101693.28;;;12.18;70.96
57668;BME280;43499;52.366;12.912;2022-07-11T01:04:44;101690.53;;;12.16;71.18
57668;BME280;43499;52.366;12.912;2022-07-11T01:05:46;101687.56;;;12.03;71.36
57668;BME280;43499;52.366;12.912;2022-07-11T01:06:47;101684.50;;;11.98;71.25
57668;BME280;43499;52.366;12.912;2022-07-11T01:07:49;101690.84;;;12.00;71.29
57668;BME280;43499;52.366;12.912;2022-07-11T01:08:51;101692.75;;;11.93;72.11
57668;BME280;43499;52.366;12.912;2022-07-11T01:09:53;101683.91;;;11.92;72.53
57668;BME280;43499;52.366;12.912;2022-07-11T01:10:54;101690.78;;;11.90;71.32
57668;BME280;43499;52.366;12.912;2022-07-11T01:11:56;101693.19;;;11.78;72.13
57668;BME280;43499;52.366;12.912;2022-07-11T01:12:58;101693.91;;;11.86;71.98
57668;BME280;43499;52.366;12.912;2022-07-11T01:14:00;101694.25;;;11.80;72.26
57668;BME280;43499;52.366;12.912;2022-07-11T01:15:02;101692.94;;;11.85;72.27
57668;BME280;43499;52.366;12.912;2022-07-11T01:16:11;101689.16;;;11.92;72.38
57668;BME280;43499;52.366;12.912;2022-07-11T01:17:13;101695.94;;;11.80;72.57
57668;BME280;43499;52.366;12.912;2022-07-11T01:18:15;101698.31;;;11.96;72.03
57668;BME280;43499;52.366;12.912;2022-07-11T01:19:16;101691.75;;;11.63;72.77
57668;BME280;43499;52.366;12.912;2022-07-11T01:20:18;101696.53;;;11.86;72.15
57668;BME280;43499;52.366;12.912;2022-07-11T01:21:23;101696.41;;;11.84;72.24
57668;BME280;43499;52.366;12.912;2022-07-11T01:22:28;101695.81;;;11.78;72.44
57668;BME280;43499;52.366;12.912;2022-07-11T01:23:30;101701.44;;;11.92;72.12
57668;BME280;43499;52.366;12.912;2022-07-11T01:24:32;101700.97;;;11.77;72.43
57668;BME280;43499;52.366;12.912;2022-07-11T01:25:34;101693.53;;;11.72;72.20
57668;BME280;43499;52.366;12.912;2022-07-11T01:26:35;101693.41;;;11.71;72.39
57668;BME280;43499;52.366;12.912;2022-07-11T01:27:38;101698.53;;;11.69;72.81
57668;BME280;43499;52.366;12.912;2022-07-11T01:28:39;101696.09;;;11.81;72.39
57668;BME280;43499;52.366;12.912;2022-07-11T01:29:41;101694.75;;;11.76;72.39
57668;BME280;43499;52.366;12.912;2022-07-11T01:30:42;101700.66;;;11.73;72.93
57668;BME280;43499;52.366;12.912;2022-07-11T01:31:44;101701.69;;;11.65;72.89
57668;BME280;43499;52.366;12.912;2022-07-11T01:32:45;101700.47;;;11.62;73.44
57668;BME280;43499;52.366;12.912;2022-07-11T01:33:47;101700.03;;;11.57;73.70
57668;BME280;43499;52.366;12.912;2022-07-11T01:34:48;101695.09;;;11.51;73.24
57668;BME280;43499;52.366;12.912;2022-07-11T01:35:50;101692.84;;;11.65;73.20
57668;BME280;43499;52.366;12.912;2022-07-11T01:36:51;101690.50;;;11.68;72.77
57668;BME280;43499;52.366;12.912;2022-07-11T01:37:53;101700.25;;;11.69;72.72
57668;BME280;43499;52.366;12.912;2022-07-11T01:38:55;101702.81;;;11.58;73.12
57668;BME280;43499;52.366;12.912;2022-07-11T01:39:57;101702.22;;;11.52;73.72
57668;BME280;43499;52.366;12.912;2022-07-11T01:40:58;101703.38;;;11.46;73.50
57668;BME280;43499;52.366;12.912;2022-07-11T01:42:00;101697.53;;;11.39;74.17
57668;BME280;43499;52.366;12.912;2022-07-11T01:43:01;101694.63;;;11.36;73.66
57668;BME280;43499;52.366;12.912;2022-07-11T01:44:03;101701.97;;;11.49;74.52
57668;BME280;43499;52.366;12.912;2022-07-11T01:45:04;101683.78;;;11.52;73.98
57668;BME280;43499;52.366;12.912;2022-07-11T01:46:06;101691.75;;;11.63;72.90
57668;BME280;43499;52.366;12.912;2022-07-11T01:47:07;101700.25;;;11.69;72.94
57668;BME280;43499;52.366;12.912;2022-07-11T01:48:09;101696.91;;;11.61;72.96
57668;BME280;43499;52.366;12.912;2022-07-11T01:49:10;101700.31;;;11.60;73.24
57668;BME280;43499;52.366;12.912;2022-07-11T01:50:12;101692.72;;;11.63;73.25
57668;BME280;43499;52.366;12.912;2022-07-11T01:51:13;101700.97;;;11.57;73.03
57668;BME280;43499;52.366;12.912;2022-07-11T01:52:15;101698.56;;;11.50;73.24
57668;BME280;43499;52.366;12.912;2022-07-11T01:53:16;101699.03;;;11.46;73.66
57668;BME280;43499;52.366;12.912;2022-07-11T01:54:19;101696.06;;;11.52;73.28
57668;BME280;43499;52.366;12.912;2022-07-11T01:55:20;101695.56;;;11.37;73.91
57668;BME280;43499;52.366;12.912;2022-07-11T01:56:22;101690.00;;;11.34;74.01
57668;BME280;43499;52.366;12.912;2022-07-11T01:57:23;101687.00;;;11.39;74.18
57668;BME280;43499;52.366;12.912;2022-07-11T01:58:25;101695.19;;;11.42;73.97
57668;BME280;43499;52.366;12.912;2022-07-11T01:59:26;101685.09;;;11.28;74.40
57668;BME280;43499;52.366;12.912;2022-07-11T02:00:28;101693.47;;;11.43;74.06
57668;BME280;43499;52.366;12.912;2022-07-11T02:01:28;101681.25;;;11.24;73.90
57668;BME280;43499;52.366;12.912;2022-07-11T02:02:30;101679.38;;;11.23;74.33
57668;BME280;43499;52.366;12.912;2022-07-11T02:03:31;101690.28;;;11.37;74.60
57668;BME280;43499;52.366;12.912;2022-07-11T02:04:33;101689.41;;;11.47;74.41
57668;BME280;43499;52.366;12.912;2022-07-11T02:05:34;101689.28;;;11.45;74.10
57668;BME280;43499;52.366;12.912;2022-07-11T02:06:39;101684.66;;;11.42;74.03
57668;BME280;43499;52.366;12.912;2022-07-11T02:07:40;101693.34;;;11.41;73.97
57668;BME280;43499;52.366;12.912;2022-07-11T02:08:59;101687.38;;;11.34;74.34
57668;BME280;43499;52.366;12.912;2022-07-11T02:10:03;101689.50;;;11.38;74.25
57668;BME280;43499;52.366;12.912;2022-07-11T02:11:04;101692.69;;;11.44;74.36
57668;BME280;43499;52.366;12.912;2022-07-11T02:12:06;101690.78;;;11.33;75.20
57668;BME280;43499;52.366;12.912;2022-07-11T02:13:08;101685.09;;;11.28;74.40
57668;BME280;43499;52.366;12.912;2022-07-11T02:14:11;101691.97;;;11.36;74.35
57668;BME280;43499;52.366;12.912;2022-07-11T02:15:13;101693.97;;;11.39;74.29
57668;BME280;43499;52.366;12.912;2022-07-11T02:16:14;101692.19;;;11.29;74.88
57668;BME280;43499;52.366;12.912;2022-07-11T02:17:16;101685.50;;;11.33;74.59
57668;BME280;43499;52.366;12.912;2022-07-11T02:18:18;101693.00;;;11.47;74.50
57668;BME280;43499;52.366;12.912;2022-07-11T02:19:20;101686.16;;;11.49;74.17
57668;BME280;43499;52.366;12.912;2022-07-11T02:20:22;101681.38;;;11.45;73.86
57668;BME280;43499;52.366;12.912;2022-07-11T02:21:24;101674.84;;;11.31;73.73
57668;BME280;43499;52.366;12.912;2022-07-11T02:22:26;101682.66;;;11.40;73.82
57668;BME280;43499;52.366;12.912;2022-07-11T02:23:27;101686.06;;;11.39;74.70
57668;BME280;43499;52.366;12.912;2022-07-11T02:24:29;101689.78;;;11.41;74.34
57668;BME280;43499;52.366;12.912;2022-07-11T02:25:32;101690.19;;;11.46;74.27
57668;BME280;43499;52.366;12.912;2022-07-11T02:26:35;101681.75;;;11.39;74.78
57668;BME280;43499;52.366;12.912;2022-07-11T02:27:36;101688.91;;;11.32;74.63
57668;BME280;43499;52.366;12.912;2022-07-11T02:28:38;101683.44;;;11.39;74.17
57668;BME280;43499;52.366;12.912;2022-07-11T02:29:40;101689.84;;;11.13;74.98
57668;BME280;43499;52.366;12.912;2022-07-11T02:30:43;101686.44;;;11.14;74.87
57668;BME280;43499;52.366;12.912;2022-07-11T02:31:44;101679.56;;;11.16;75.08
57668;BME280;43499;52.366;12.912;2022-07-11T02:32:46;101693.81;;;11.18;75.16
57668;BME280;43499;52.366;12.912;2022-07-11T02:33:47;101697.72;;;11.13;75.45
57668;BME280;43499;52.366;12.912;2022-07-11T02:34:49;101684.56;;;10.85;76.27
57668;BME280;43499;52.366;12.912;2022-07-11T02:35:50;101682.88;;;10.86;76.79
57668;BME280;43499;52.366;12.912;2022-07-11T02:36:52;101690.72;;;10.67;77.17
57668;BME280;43499;52.366;12.912;2022-07-11T02:37:53;101691.03;;;10.70;77.22
57668;BME280;43499;52.366;12.912;2022-07-11T02:38:55;101688.97;;;10.76;77.10
57668;BME280;43499;52.366;12.912;2022-07-11T02:39:56;101696.59;;;10.92;76.43
57668;BME280;43499;52.366;12.912;2022-07-11T02:40:59;101681.13;;;10.95;76.54
57668;BME280;43499;52.366;12.912;2022-07-11T02:42:00;101691.13;;;10.99;75.83
57668;BME280;43499;52.366;12.912;2022-07-11T02:43:02;101690.31;;;11.09;76.07
57668;BME280;43499;52.366;12.912;2022-07-11T02:44:04;101689.31;;;10.98;76.21
57668;BME280;43499;52.366;12.912;2022-07-11T02:45:06;101689.94;;;10.95;76.18
57668;BME280;43499;52.366;12.912;2022-07-11T02:46:08;101698.41;;;11.02;76.14
57668;BME280;43499;52.366;12.912;2022-07-11T02:47:10;101699.97;;;11.00;76.12
57668;BME280;43499;52.366;12.912;2022-07-11T02:48:11;101692.09;;;11.00;76.27
57668;BME280;43499;52.366;12.912;2022-07-11T02:49:13;101701.19;;;10.75;76.90
57668;BME280;43499;52.366;12.912;2022-07-11T02:50:14;101712.16;;;10.80;76.87
57668;BME280;43499;52.366;12.912;2022-07-11T02:51:16;101703.75;;;10.84;77.23
57668;BME280;43499;52.366;12.912;2022-07-11T02:52:19;101706.19;;;10.63;76.80
57668;BME280;43499;52.366;12.912;2022-07-11T02:53:21;101697.13;;;10.42;78.19
57668;BME280;43499;52.366;12.912;2022-07-11T02:54:23;101712.75;;;10.49;78.94
57668;BME280;43499;52.366;12.912;2022-07-11T02:55:24;101714.03;;;10.72;77.44
57668;BME280;43499;52.366;12.912;2022-07-11T02:56:27;101710.97;;;10.68;76.62
57668;BME280;43499;52.366;12.912;2022-07-11T02:57:28;101711.78;;;10.58;77.59
57668;BME280;43499;52.366;12.912;2022-07-11T02:58:30;101709.47;;;10.61;77.54
57668;BME280;43499;52.366;12.912;2022-07-11T02:59:31;101703.41;;;10.62;77.10
57668;BME280;43499;52.366;12.912;2022-07-11T03:00:34;101713.97;;;10.53;78.19
57668;BME280;43499;52.366;12.912;2022-07-11T03:01:35;101721.06;;;10.54;78.30
57668;BME280;43499;52.366;12.912;2022-07-11T03:02:37;101714.34;;;10.75;77.35
57668;BME280;43499;52.366;12.912;2022-07-11T03:03:38;101715.34;;;10.86;77.04
57668;BME280;43499;52.366;12.912;2022-07-11T03:04:40;101723.28;;;10.77;76.77
57668;BME280;43499;52.366;12.912;2022-07-11T03:05:42;101717.78;;;10.65;77.77
57668;BME280;43499;52.366;12.912;2022-07-11T03:06:44;101725.38;;;10.62;77.68
57668;BME280;43499;52.366;12.912;2022-07-11T03:07:45;101723.50;;;10.61;77.52
57668;BME280;43499;52.366;12.912;2022-07-11T03:08:47;101723.84;;;10.56;77.61
57668;BME280;43499;52.366;12.912;2022-07-11T03:09:49;101725.81;;;10.67;77.55
57668;BME280;43499;52.366;12.912;2022-07-11T03:10:51;101721.66;;;10.60;77.71
57668;BME280;43499;52.366;12.912;2022-07-11T03:11:53;101740.13;;;10.52;77.59
57668;BME280;43499;52.366;12.912;2022-07-11T03:12:55;101735.31;;;10.56;78.02
57668;BME280;43499;52.366;12.912;2022-07-11T03:13:57;101730.66;;;10.54;77.50
57668;BME280;43499;52.366;12.912;2022-07-11T03:14:59;101731.72;;;10.56;78.20
57668;BME280;43499;52.366;12.912;2022-07-11T03:16:00;101730.94;;;10.57;77.47
57668;BME280;43499;52.366;12.912;2022-07-11T03:17:03;101728.00;;;10.54;77.60
57668;BME280;43499;52.366;12.912;2022-07-11T03:18:04;101732.78;;;10.67;77.56
57668;BME280;43499;52.366;12.912;2022-07-11T03:19:05;101728.94;;;10.63;77.58
57668;BME280;43499;52.366;12.912;2022-07-11T03:20:08;101734.47;;;10.66;78.07
57668;BME280;43499;52.366;12.912;2022-07-11T03:21:10;101727.09;;;10.62;77.38
57668;BME280;43499;52.366;12.912;2022-07-11T03:22:11;101734.34;;;10.64;77.24
57668;BME280;43499;52.366;12.912;2022-07-11T03:23:13;101735.31;;;10.56;77.51
57668;BME280;43499;52.366;12.912;2022-07-11T03:24:14;101732.38;;;10.53;78.07
57668;BME280;43499;52.366;12.912;2022-07-11T03:25:15;101736.31;;;10.76;77.32
57668;BME280;43499;52.366;12.912;2022-07-11T03:26:16;101738.13;;;10.86;77.39
57668;BME280;43499;52.366;12.912;2022-07-11T03:27:20;101733.03;;;10.78;76.99
57668;BME280;43499;52.366;12.912;2022-07-11T03:28:21;101742.78;;;10.79;77.05
57668;BME280;43499;52.366;12.912;2022-07-11T03:29:23;101742.94;;;10.81;77.46
57668;BME280;43499;52.366;12.912;2022-07-11T03:30:25;101738.16;;;10.77;77.06
57668;BME280;43499;52.366;12.912;2022-07-11T03:31:27;101742.09;;;10.91;76.93
57668;BME280;43499;52.366;12.912;2022-07-11T03:32:28;101734.06;;;10.89;76.32
57668;BME280;43499;52.366;12.912;2022-07-11T03:33:30;101737.78;;;10.91;76.79
57668;BME280;43499;52.366;12.912;2022-07-11T03:34:31;101732.34;;;10.90;76.97
57668;BME280;43499;52.366;12.912;2022-07-11T03:35:32;101735.59;;;10.96;76.62
57668;BME280;43499;52.366;12.912;2022-07-11T03:36:43;101730.00;;;11.02;76.24
57668;BME280;43499;52.366;12.912;2022-07-11T03:37:46;101731.69;;;11.01;77.00
57668;BME280;43499;52.366;12.912;2022-07-11T03:38:47;101727.97;;;10.99;76.23
57668;BME280;43499;52.366;12.912;2022-07-11T03:39:49;101728.72;;;11.07;76.06
57668;BME280;43499;52.366;12.912;2022-07-11T03:40:50;101737.34;;;11.15;76.01
57668;BME280;43499;52.366;12.912;2022-07-11T03:41:52;101732.72;;;11.12;75.91
57668;BME280;43499;52.366;12.912;2022-07-11T03:42:55;101732.16;;;11.25;75.35
57668;BME280;43499;52.366;12.912;2022-07-11T03:43:57;101738.81;;;11.30;75.69
57668;BME280;43499;52.366;12.912;2022-07-11T03:44:58;101740.84;;;11.24;75.77
57668;BME280;43499;52.366;12.912;2022-07-11T03:46:00;101737.00;;;11.20;75.54
57668;BME280;43499;52.366;12.912;2022-07-11T03:47:01;101733.16;;;11.17;75.83
57668;BME280;43499;52.366;12.912;2022-07-11T03:48:03;101731.16;;;11.14;75.89
57668;BME280;43499;52.366;12.912;2022-07-11T03:49:04;101733.28;;;11.18;75.30
57668;BME280;43499;52.366;12.912;2022-07-11T03:50:07;101737.47;;;11.16;75.89
57668;BME280;43499;52.366;12.912;2022-07-11T03:51:08;101732.38;;;11.18;75.95
57668;BME280;43499;52.366;12.912;2022-07-11T03:52:10;101736.34;;;11.23;75.68
57668;BME280;43499;52.366;12.912;2022-07-11T03:53:11;101732.16;;;11.25;75.05
57668;BME280;43499;52.366;12.912;2022-07-11T03:54:12;101730.38;;;11.34;75.87
57668;BME280;43499;52.366;12.912;2022-07-11T03:55:13;101732.25;;;11.35;75.03
57668;BME280;43499;52.366;12.912;2022-07-11T03:56:15;101730.69;;;11.37;75.13
57668;BME280;43499;52.366;12.912;2022-07-11T03:57:18;101730.72;;;11.56;74.58
57668;BME280;43499;52.366;12.912;2022-07-11T03:58:21;101728.09;;;11.76;73.56
57668;BME280;43499;52.366;12.912;2022-07-11T03:59:22;101728.13;;;11.86;73.51
57668;BME280;43499;52.366;12.912;2022-07-11T04:00:24;101726.22;;;11.94;73.43
57668;BME280;43499;52.366;12.912;2022-07-11T04:01:26;101720.63;;;11.99;72.72
57668;BME280;43499;52.366;12.912;2022-07-11T04:02:27;101720.25;;;12.05;72.04
57668;BME280;43499;52.366;12.912;2022-07-11T04:03:29;101724.72;;;11.87;73.23
57668;BME280;43499;52.366;12.912;2022-07-11T04:04:30;101716.59;;;11.94;72.82
57668;BME280;43499;52.366;12.912;2022-07-11T04:05:32;101728.38;;;11.98;72.74
57668;BME280;43499;52.366;12.912;2022-07-11T04:06:34;101724.50;;;12.13;72.85
57668;BME280;43499;52.366;12.912;2022-07-11T04:07:35;101733.84;;;12.10;72.21
57668;BME280;43499;52.366;12.912;2022-07-11T04:08:37;101729.03;;;12.25;72.07
57668;BME280;43499;52.366;12.912;2022-07-11T04:09:38;101728.88;;;12.42;71.66
57668;BME280;43499;52.366;12.912;2022-07-11T04:10:40;101717.00;;;12.47;71.19
57668;BME280;43499;52.366;12.912;2022-07-11T04:11:41;101727.28;;;12.55;70.78
57668;BME280;43499;52.366;12.912;2022-07-11T04:12:42;101723.63;;;12.53;70.80
57668;BME280;43499;52.366;12.912;2022-07-11T04:13:45;101730.50;;;12.61;71.24
57668;BME280;43499;52.366;12.912;2022-07-11T04:14:47;101731.72;;;12.75;70.63
57668;BME280;43499;52.366;12.912;2022-07-11T04:15:48;101721.78;;;12.62;71.28
57668;BME280;43499;52.366;12.912;2022-07-11T04:16:50;101732.28;;;12.81;70.37
57668;BME280;43499;52.366;12.912;2022-07-11T04:17:52;101734.91;;;12.81;70.16
57668;BME280;43499;52.366;12.912;2022-07-11T04:18:54;101725.81;;;12.88;70.55
57668;BME280;43499;52.366;12.912;2022-07-11T04:19:56;101720.81;;;13.01;70.23
57668;BME280;43499;52.366;12.912;2022-07-11T04:20:57;101729.94;;;13.15;69.21
57668;BME280;43499;52.366;12.912;2022-07-11T04:21:59;101728.47;;;13.08;69.42
57668;BME280;43499;52.366;12.912;2022-07-11T04:23:00;101729.41;;;13.19;69.23
57668;BME280;43499;52.366;12.912;2022-07-11T04:24:02;101719.00;;;13.31;69.00
57668;BME280;43499;52.366;12.912;2022-07-11T04:25:03;101721.78;;;13.43;68.84
57668;BME280;43499;52.366;12.912;2022-07-11T04:26:05;101710.81;;;13.49;68.54
57668;BME280;43499;52.366;12.912;2022-07-11T04:27:06;101718.72;;;13.49;67.80
57668;BME280;43499;52.366;12.912;2022-07-11T04:28:08;101714.00;;;13.55;68.31
57668;BME280;43499;52.366;12.912;2022-07-11T04:29:10;101720.19;;;13.55;68.03
57668;BME280;43499;52.366;12.912;2022-07-11T04:30:13;101721.19;;;13.78;67.98
57668;BME280;43499;52.366;12.912;2022-07-11T04:31:13;101725.84;;;13.70;67.42
57668;BME280;43499;52.366;12.912;2022-07-11T04:32:15;101717.91;;;13.91;67.64
57668;BME280;43499;52.366;12.912;2022-07-11T04:33:16;101724.16;;;14.03;67.01
57668;BME280;43499;52.366;12.912;2022-07-11T04:34:18;101719.09;;;14.17;66.40
57668;BME280;43499;52.366;12.912;2022-07-11T04:35:20;101714.81;;;14.29;65.71
57668;BME280;43499;52.366;12.912;2022-07-11T04:36:21;101710.28;;;14.39;65.47
57668;BME280;43499;52.366;12.912;2022-07-11T04:37:23;101707.31;;;14.24;65.73
57668;BME280;43499;52.366;12.912;2022-07-11T04:38:26;101708.75;;;14.30;66.00
57668;BME280;43499;52.366;12.912;2022-07-11T04:39:29;101704.03;;;14.48;65.43
57668;BME280;43499;52.366;12.912;2022-07-11T04:40:30;101708.03;;;14.65;65.00
57668;BME280;43499;52.366;12.912;2022-07-11T04:41:31;101704.03;;;14.81;64.66
57668;BME280;43499;52.366;12.912;2022-07-11T04:42:33;101711.75;;;14.90;64.65
57668;BME280;43499;52.366;12.912;2022-07-11T04:43:35;101707.66;;;14.93;64.26
57668;BME280;43499;52.366;12.912;2022-07-11T04:44:38;101707.81;;;15.07;64.00
57668;BME280;43499;52.366;12.912;2022-07-11T04:45:42;101710.94;;;15.13;63.69
57668;BME280;43499;52.366;12.912;2022-07-11T04:46:43;101713.41;;;15.00;62.91
57668;BME280;43499;52.366;12.912;2022-07-11T04:47:45;101710.94;;;15.13;63.13
57668;BME280;43499;52.366;12.912;2022-07-11T04:48:46;101710.56;;;15.08;63.05
57668;BME280;43499;52.366;12.912;2022-07-11T04:49:48;101718.44;;;15.19;63.00
57668;BME280;43499;52.366;12.912;2022-07-11T04:50:51;101724.00;;;15.34;62.91
57668;BME280;43499;52.366;12.912;2022-07-11T04:51:54;101721.84;;;15.40;63.10
57668;BME280;43499;52.366;12.912;2022-07-11T04:52:55;101720.59;;;15.47;62.21
57668;BME280;43499;52.366;12.912;2022-07-11T04:53:57;101718.41;;;15.53;62.23
57668;BME280;43499;52.366;12.912;2022-07-11T04:54:57;101715.53;;;15.62;62.24
57668;BME280;43499;52.366;12.912;2022-07-11T04:55:59;101714.47;;;15.48;62.19
57668;BME280;43499;52.366;12.912;2022-07-11T04:57:00;101723.25;;;15.58;62.17
57668;BME280;43499;52.366;12.912;2022-07-11T04:58:02;101717.94;;;15.70;61.78
57668;BME280;43499;52.366;12.912;2022-07-11T04:59:03;101715.19;;;15.69;61.21
57668;BME280;43499;52.366;12.912;2022-07-11T05:00:08;101709.59;;;15.88;61.09
57668;BME280;43499;52.366;12.912;2022-07-11T05:01:09;101727.13;;;16.10;60.91
57668;BME280;43499;52.366;12.912;2022-07-11T05:02:11;101718.22;;;16.21;60.17
57668;BME280;43499;52.366;12.912;2022-07-11T05:03:12;101721.34;;;16.27;60.21
57668;BME280;43499;52.366;12.912;2022-07-11T05:04:15;101722.47;;;16.43;59.68
57668;BME280;43499;52.366;12.912;2022-07-11T05:05:16;101716.69;;;16.48;59.44
57668;BME280;43499;52.366;12.912;2022-07-11T05:06:20;101724.31;;;16.56;59.44
57668;BME280;43499;52.366;12.912;2022-07-11T05:07:21;101721.59;;;16.68;59.39
57668;BME280;43499;52.366;12.912;2022-07-11T05:08:23;101722.41;;;16.78;59.16
57668;BME280;43499;52.366;12.912;2022-07-11T05:09:25;101716.94;;;16.89;57.82
57668;BME280;43499;52.366;12.912;2022-07-11T05:10:26;101721.00;;;16.34;59.68
57668;BME280;43499;52.366;12.912;2022-07-11T05:11:28;101712.97;;;16.58;59.27
57668;BME280;43499;52.366;12.912;2022-07-11T05:12:29;101715.00;;;16.74;59.18
57668;BME280;43499;52.366;12.912;2022-07-11T05:13:31;101710.22;;;16.94;58.43
57668;BME280;43499;52.366;12.912;2022-07-11T05:14:32;101723.19;;;17.15;57.98
57668;BME280;43499;52.366;12.912;2022-07-11T05:15:36;101724.66;;;17.23;57.55
57668;BME280;43499;52.366;12.912;2022-07-11T05:16:37;101724.84;;;17.26;57.15
57668;BME280;43499;52.366;12.912;2022-07-11T05:17:39;101718.69;;;17.39;56.60
57668;BME280;43499;52.366;12.912;2022-07-11T05:18:41;101725.88;;;17.28;56.51
57668;BME280;43499;52.366;12.912;2022-07-11T05:19:43;101729.03;;;17.48;56.20